sensor_id;sensor_type;location;lat;lon;timestamp;temperature;humidity
48666;DHT22;34452;50.796;4.994;2023-07-16T00:00:29;17.70;99.90
48666;DHT22;34452;50.796;4.994;2023-07-16T00:02:55;17.70;99.90
48666;DHT22;34452;50.796;4.994;2023-07-16T00:05:22;17.60;99.90
48666;DHT22;34452;50.796;4.994;2023-07-16T00:07:47;17.60;99.90
48666;DHT22;34452;50.796;4.994;2023-07-16T00:10:13;17.50;99.90
48666;DHT22;34452;50.796;4.994;2023-07-16T00:12:39;17.50;99.90
48666;DHT22;34452;50.796;4.994;2023-07-16T00:15:05;17.50;99.90
48666;DHT22;34452;50.796;4.994;2023-07-16T00:17:31;17.40;99.90
48666;DHT22;34452;50.796;4.994;2023-07-16T00:19:58;17.40;99.90
48666;DHT22;34452;50.796;4.994;2023-07-16T00:22:23;17.40;99.90
48666;DHT22;34452;50.796;4.994;2023-07-16T00:24:50;17.30;99.90
48666;DHT22;34452;50.796;4.994;2023-07-16T00:27:16;17.30;99.90
48666;DHT22;34452;50.796;4.994;2023-07-16T00:29:41;17.20;99.90
48666;DHT22;34452;50.796;4.994;2023-07-16T00:32:07;17.20;99.90
48666;DHT22;34452;50.796;4.994;2023-07-16T00:34:33;17.00;99.90
48666;DHT22;34452;50.796;4.994;2023-07-16T00:36:59;16.90;99.90
48666;DHT22;34452;50.796;4.994;2023-07-16T00:39:28;16.90;99.90
48666;DHT22;34452;50.796;4.994;2023-07-16T00:41:54;16.90;99.90
48666;DHT22;34452;50.796;4.994;2023-07-16T00:44:20;16.80;99.90
48666;DHT22;34452;50.796;4.994;2023-07-16T00:46:46;16.80;99.90
48666;DHT22;34452;50.796;4.994;2023-07-16T00:49:12;16.70;99.90
48666;DHT22;34452;50.796;4.994;2023-07-16T00:51:38;16.70;99.90
48666;DHT22;34452;50.796;4.994;2023-07-16T00:54:04;16.60;99.90
48666;DHT22;34452;50.796;4.994;2023-07-16T00:56:30;16.60;99.90
48666;DHT22;34452;50.796;4.994;2023-07-16T00:58:56;16.70;99.90
48666;DHT22;34452;50.796;4.994;2023-07-16T01:01:22;16.70;99.90
48666;DHT22;34452;50.796;4.994;2023-07-16T01:03:48;16.80;99.90
48666;DHT22;34452;50.796;4.994;2023-07-16T01:06:18;16.80;99.90
48666;DHT22;34452;50.796;4.994;2023-07-16T01:08:49;16.80;99.90
48666;DHT22;34452;50.796;4.994;2023-07-16T01:11:17;16.80;99.90
48666;DHT22;34452;50.796;4.994;2023-07-16T01:13:44;16.90;99.90
48666;DHT22;34452;50.796;4.994;2023-07-16T01:16:21;16.90;99.90
48666;DHT22;34452;50.796;4.994;2023-07-16T01:18:48;16.90;99.90
48666;DHT22;34452;50.796;4.994;2023-07-16T01:21:14;17.00;99.90
48666;DHT22;34452;50.796;4.994;2023-07-16T01:29:33;16.90;99.90
48666;DHT22;34452;50.796;4.994;2023-07-16T01:32:03;16.90;99.90
48666;DHT22;34452;50.796;4.994;2023-07-16T01:34:31;16.90;99.90
48666;DHT22;34452;50.796;4.994;2023-07-16T01:37:00;16.90;99.90
48666;DHT22;34452;50.796;4.994;2023-07-16T01:39:26;16.80;99.90
48666;DHT22;34452;50.796;4.994;2023-07-16T01:41:52;16.80;99.90
48666;DHT22;34452;50.796;4.994;2023-07-16T01:44:18;16.80;99.90
48666;DHT22;34452;50.796;4.994;2023-07-16T01:46:44;16.80;99.90
48666;DHT22;34452;50.796;4.994;2023-07-16T01:49:09;16.80;99.90
48666;DHT22;34452;50.796;4.994;2023-07-16T01:51:35;16.70;99.90
48666;DHT22;34452;50.796;4.994;2023-07-16T01:54:01;16.70;99.90
48666;DHT22;34452;50.796;4.994;2023-07-16T01:56:26;16.70;99.90
48666;DHT22;34452;50.796;4.994;2023-07-16T01:58:52;16.60;99.90
48666;DHT22;34452;50.796;4.994;2023-07-16T02:01:18;16.60;99.90
48666;DHT22;34452;50.796;4.994;2023-07-16T02:03:43;16.60;99.90
48666;DHT22;34452;50.796;4.994;2023-07-16T02:06:09;16.50;99.90
48666;DHT22;34452;50.796;4.994;2023-07-16T02:08:35;16.50;99.90
48666;DHT22;34452;50.796;4.994;2023-07-16T02:11:00;16.50;99.90
48666;DHT22;34452;50.796;4.994;2023-07-16T02:13:27;16.40;99.90
48666;DHT22;34452;50.796;4.994;2023-07-16T02:15:53;16.40;99.90
48666;DHT22;34452;50.796;4.994;2023-07-16T02:18:18;16.40;99.90
48666;DHT22;34452;50.796;4.994;2023-07-16T02:20:44;16.40;99.90
48666;DHT22;34452;50.796;4.994;2023-07-16T02:23:10;16.30;99.90
48666;DHT22;34452;50.796;4.994;2023-07-16T02:25:36;16.30;99.90
48666;DHT22;34452;50.796;4.994;2023-07-16T02:28:01;16.30;99.90
48666;DHT22;34452;50.796;4.994;2023-07-16T02:30:27;16.30;99.90
48666;DHT22;34452;50.796;4.994;2023-07-16T02:32:54;16.30;99.90
48666;DHT22;34452;50.796;4.994;2023-07-16T02:35:19;16.20;99.90
48666;DHT22;34452;50.796;4.994;2023-07-16T02:37:45;16.20;99.90
48666;DHT22;34452;50.796;4.994;2023-07-16T02:40:11;16.10;99.90
48666;DHT22;34452;50.796;4.994;2023-07-16T02:42:36;16.10;99.90
48666;DHT22;34452;50.796;4.994;2023-07-16T02:45:03;16.10;99.90
48666;DHT22;34452;50.796;4.994;2023-07-16T02:47:28;16.00;99.90
48666;DHT22;34452;50.796;4.994;2023-07-16T02:49:54;16.00;99.90
48666;DHT22;34452;50.796;4.994;2023-07-16T02:52:20;15.90;99.90
48666;DHT22;34452;50.796;4.994;2023-07-16T02:54:46;15.90;99.90
48666;DHT22;34452;50.796;4.994;2023-07-16T02:57:12;15.80;99.90
48666;DHT22;34452;50.796;4.994;2023-07-16T02:59:37;15.80;99.90
48666;DHT22;34452;50.796;4.994;2023-07-16T03:02:03;15.80;99.90
48666;DHT22;34452;50.796;4.994;2023-07-16T03:04:29;15.80;99.90
48666;DHT22;34452;50.796;4.994;2023-07-16T03:06:54;15.90;99.90
48666;DHT22;34452;50.796;4.994;2023-07-16T03:09:20;15.90;99.90
48666;DHT22;34452;50.796;4.994;2023-07-16T03:11:46;15.90;99.90
48666;DHT22;34452;50.796;4.994;2023-07-16T03:14:11;15.80;99.90
48666;DHT22;34452;50.796;4.994;2023-07-16T03:16:37;15.80;99.90
48666;DHT22;34452;50.796;4.994;2023-07-16T03:19:03;15.80;99.90
48666;DHT22;34452;50.796;4.994;2023-07-16T03:21:28;15.70;99.90
48666;DHT22;34452;50.796;4.994;2023-07-16T03:23:54;15.70;99.90
48666;DHT22;34452;50.796;4.994;2023-07-16T03:26:20;15.60;99.90
48666;DHT22;34452;50.796;4.994;2023-07-16T03:28:45;15.60;99.90
48666;DHT22;34452;50.796;4.994;2023-07-16T03:31:11;15.60;99.90
48666;DHT22;34452;50.796;4.994;2023-07-16T03:33:37;15.60;99.90
48666;DHT22;34452;50.796;4.994;2023-07-16T03:36:03;15.50;99.90
48666;DHT22;34452;50.796;4.994;2023-07-16T03:38:28;15.50;99.90
48666;DHT22;34452;50.796;4.994;2023-07-16T03:40:54;15.60;99.90
48666;DHT22;34452;50.796;4.994;2023-07-16T03:43:20;15.60;99.90
48666;DHT22;34452;50.796;4.994;2023-07-16T03:45:45;15.60;99.90
48666;DHT22;34452;50.796;4.994;2023-07-16T03:48:11;15.60;99.90
48666;DHT22;34452;50.796;4.994;2023-07-16T03:50:37;15.50;99.90
48666;DHT22;34452;50.796;4.994;2023-07-16T03:53:03;15.60;99.90
48666;DHT22;34452;50.796;4.994;2023-07-16T03:55:29;15.60;99.90
48666;DHT22;34452;50.796;4.994;2023-07-16T03:57:55;15.60;99.90
48666;DHT22;34452;50.796;4.994;2023-07-16T04:00:20;15.50;99.90
48666;DHT22;34452;50.796;4.994;2023-07-16T04:02:46;15.50;99.90
48666;DHT22;34452;50.796;4.994;2023-07-16T04:05:12;15.50;99.90
48666;DHT22;34452;50.796;4.994;2023-07-16T04:07:37;15.50;99.90
48666;DHT22;34452;50.796;4.994;2023-07-16T04:10:04;15.50;99.90
48666;DHT22;34452;50.796;4.994;2023-07-16T04:12:29;15.50;99.90
48666;DHT22;34452;50.796;4.994;2023-07-16T04:14:57;15.60;99.90
48666;DHT22;34452;50.796;4.994;2023-07-16T04:17:24;15.50;99.90
48666;DHT22;34452;50.796;4.994;2023-07-16T04:19:49;15.60;99.90
48666;DHT22;34452;50.796;4.994;2023-07-16T04:22:15;15.60;99.90
48666;DHT22;34452;50.796;4.994;2023-07-16T04:24:41;15.70;99.90
48666;DHT22;34452;50.796;4.994;2023-07-16T04:27:07;15.60;99.90
48666;DHT22;34452;50.796;4.994;2023-07-16T04:29:32;15.70;99.90
48666;DHT22;34452;50.796;4.994;2023-07-16T04:31:58;15.60;99.90
48666;DHT22;34452;50.796;4.994;2023-07-16T04:34:24;15.60;99.90
48666;DHT22;34452;50.796;4.994;2023-07-16T04:36:50;15.60;99.90
48666;DHT22;34452;50.796;4.994;2023-07-16T04:39:15;15.60;99.90
48666;DHT22;34452;50.796;4.994;2023-07-16T04:41:41;15.50;99.90
48666;DHT22;34452;50.796;4.994;2023-07-16T04:44:07;15.60;99.90
48666;DHT22;34452;50.796;4.994;2023-07-16T04:46:33;15.50;99.90
48666;DHT22;34452;50.796;4.994;2023-07-16T04:48:59;15.50;99.90
48666;DHT22;34452;50.796;4.994;2023-07-16T04:51:25;15.60;99.90
48666;DHT22;34452;50.796;4.994;2023-07-16T04:53:51;15.60;99.90
48666;DHT22;34452;50.796;4.994;2023-07-16T04:56:17;15.60;99.90
48666;DHT22;34452;50.796;4.994;2023-07-16T04:58:42;15.60;99.90
48666;DHT22;34452;50.796;4.994;2023-07-16T05:01:09;15.70;99.90
48666;DHT22;34452;50.796;4.994;2023-07-16T05:03:35;15.70;99.90
48666;DHT22;34452;50.796;4.994;2023-07-16T05:06:01;15.80;99.90
48666;DHT22;34452;50.796;4.994;2023-07-16T05:08:26;15.80;99.90
48666;DHT22;34452;50.796;4.994;2023-07-16T05:10:52;15.80;99.90
48666;DHT22;34452;50.796;4.994;2023-07-16T05:13:18;15.90;99.90
48666;DHT22;34452;50.796;4.994;2023-07-16T05:15:44;15.90;99.90
48666;DHT22;34452;50.796;4.994;2023-07-16T05:18:10;15.90;99.90
48666;DHT22;34452;50.796;4.994;2023-07-16T05:20:36;15.90;99.90
48666;DHT22;34452;50.796;4.994;2023-07-16T05:23:02;16.00;99.90
48666;DHT22;34452;50.796;4.994;2023-07-16T05:25:27;16.00;99.90
48666;DHT22;34452;50.796;4.994;2023-07-16T05:27:53;16.10;99.90
48666;DHT22;34452;50.796;4.994;2023-07-16T05:30:19;16.10;99.90
48666;DHT22;34452;50.796;4.994;2023-07-16T05:32:44;16.10;99.90
48666;DHT22;34452;50.796;4.994;2023-07-16T05:35:10;16.20;99.90
48666;DHT22;34452;50.796;4.994;2023-07-16T05:37:36;16.30;99.90
48666;DHT22;34452;50.796;4.994;2023-07-16T05:40:02;16.30;99.90
48666;DHT22;34452;50.796;4.994;2023-07-16T05:42:28;16.30;99.90
48666;DHT22;34452;50.796;4.994;2023-07-16T05:44:54;16.40;99.90
48666;DHT22;34452;50.796;4.994;2023-07-16T05:47:20;16.40;99.90
48666;DHT22;34452;50.796;4.994;2023-07-16T05:49:46;16.50;99.90
48666;DHT22;34452;50.796;4.994;2023-07-16T05:52:12;16.50;99.90
48666;DHT22;34452;50.796;4.994;2023-07-16T05:54:37;16.50;99.90
48666;DHT22;34452;50.796;4.994;2023-07-16T05:57:03;16.60;99.90
48666;DHT22;34452;50.796;4.994;2023-07-16T05:59:29;16.60;99.90
48666;DHT22;34452;50.796;4.994;2023-07-16T06:01:55;16.60;99.90
48666;DHT22;34452;50.796;4.994;2023-07-16T06:04:23;16.70;99.90
48666;DHT22;34452;50.796;4.994;2023-07-16T06:06:49;16.70;99.90
48666;DHT22;34452;50.796;4.994;2023-07-16T06:09:14;16.70;99.90
48666;DHT22;34452;50.796;4.994;2023-07-16T06:11:40;16.80;99.90
48666;DHT22;34452;50.796;4.994;2023-07-16T06:14:06;16.80;99.90
48666;DHT22;34452;50.796;4.994;2023-07-16T06:16:31;16.80;99.90
48666;DHT22;34452;50.796;4.994;2023-07-16T06:18:57;16.80;99.90
48666;DHT22;34452;50.796;4.994;2023-07-16T06:21:23;16.90;99.90
48666;DHT22;34452;50.796;4.994;2023-07-16T06:23:48;17.00;99.90
48666;DHT22;34452;50.796;4.994;2023-07-16T06:26:14;17.00;99.90
48666;DHT22;34452;50.796;4.994;2023-07-16T06:28:40;17.00;99.90
48666;DHT22;34452;50.796;4.994;2023-07-16T06:31:05;17.00;99.90
48666;DHT22;34452;50.796;4.994;2023-07-16T06:33:31;17.10;99.90
48666;DHT22;34452;50.796;4.994;2023-07-16T06:35:57;17.10;99.90
48666;DHT22;34452;50.796;4.994;2023-07-16T06:38:22;17.10;99.90
48666;DHT22;34452;50.796;4.994;2023-07-16T06:40:49;17.20;99.90
48666;DHT22;34452;50.796;4.994;2023-07-16T06:43:16;17.30;99.90
48666;DHT22;34452;50.796;4.994;2023-07-16T06:45:42;17.30;99.90
48666;DHT22;34452;50.796;4.994;2023-07-16T06:48:07;17.30;99.90
48666;DHT22;34452;50.796;4.994;2023-07-16T06:50:33;17.40;99.90
48666;DHT22;34452;50.796;4.994;2023-07-16T06:52:59;17.50;99.90
48666;DHT22;34452;50.796;4.994;2023-07-16T06:55:25;17.50;99.90
48666;DHT22;34452;50.796;4.994;2023-07-16T06:57:50;17.60;99.90
48666;DHT22;34452;50.796;4.994;2023-07-16T07:00:16;17.60;99.90
48666;DHT22;34452;50.796;4.994;2023-07-16T07:02:42;17.70;99.90
48666;DHT22;34452;50.796;4.994;2023-07-16T07:05:08;17.70;99.90
48666;DHT22;34452;50.796;4.994;2023-07-16T07:07:34;17.70;99.90
48666;DHT22;34452;50.796;4.994;2023-07-16T07:09:59;17.70;99.90
48666;DHT22;34452;50.796;4.994;2023-07-16T07:12:25;17.80;99.90
48666;DHT22;34452;50.796;4.994;2023-07-16T07:14:51;17.90;99.90
48666;DHT22;34452;50.796;4.994;2023-07-16T07:17:16;17.90;99.90
48666;DHT22;34452;50.796;4.994;2023-07-16T07:19:43;17.90;99.90
48666;DHT22;34452;50.796;4.994;2023-07-16T07:22:08;18.00;99.90
48666;DHT22;34452;50.796;4.994;2023-07-16T07:24:34;18.10;99.90
48666;DHT22;34452;50.796;4.994;2023-07-16T07:27:00;18.00;99.90
48666;DHT22;34452;50.796;4.994;2023-07-16T07:29:25;18.10;99.90
48666;DHT22;34452;50.796;4.994;2023-07-16T07:31:52;18.10;99.90
48666;DHT22;34452;50.796;4.994;2023-07-16T07:34:19;18.20;99.90
48666;DHT22;34452;50.796;4.994;2023-07-16T07:36:44;18.30;99.90
48666;DHT22;34452;50.796;4.994;2023-07-16T07:39:10;18.30;99.90
48666;DHT22;34452;50.796;4.994;2023-07-16T07:41:38;18.30;99.90
48666;DHT22;34452;50.796;4.994;2023-07-16T07:44:04;18.30;99.90
48666;DHT22;34452;50.796;4.994;2023-07-16T07:46:30;18.40;99.90
48666;DHT22;34452;50.796;4.994;2023-07-16T07:48:56;18.60;99.90
48666;DHT22;34452;50.796;4.994;2023-07-16T07:51:21;18.70;99.90
48666;DHT22;34452;50.796;4.994;2023-07-16T07:53:48;18.70;99.90
48666;DHT22;34452;50.796;4.994;2023-07-16T07:56:14;18.80;99.90
48666;DHT22;34452;50.796;4.994;2023-07-16T07:58:39;18.80;99.90
48666;DHT22;34452;50.796;4.994;2023-07-16T08:01:07;18.90;99.90
48666;DHT22;34452;50.796;4.994;2023-07-16T08:03:33;19.10;99.90
48666;DHT22;34452;50.796;4.994;2023-07-16T08:05:59;19.20;99.90
48666;DHT22;34452;50.796;4.994;2023-07-16T08:08:25;19.20;99.90
48666;DHT22;34452;50.796;4.994;2023-07-16T08:10:50;19.20;99.90
48666;DHT22;34452;50.796;4.994;2023-07-16T08:13:16;19.30;99.90
48666;DHT22;34452;50.796;4.994;2023-07-16T08:15:42;19.30;99.90
48666;DHT22;34452;50.796;4.994;2023-07-16T08:18:07;19.30;99.90
48666;DHT22;34452;50.796;4.994;2023-07-16T08:20:35;19.50;99.90
48666;DHT22;34452;50.796;4.994;2023-07-16T08:23:01;19.60;99.90
48666;DHT22;34452;50.796;4.994;2023-07-16T08:25:26;19.40;99.90
48666;DHT22;34452;50.796;4.994;2023-07-16T08:27:52;19.40;99.90
48666;DHT22;34452;50.796;4.994;2023-07-16T08:30:18;19.50;99.90
48666;DHT22;34452;50.796;4.994;2023-07-16T08:32:43;19.50;99.90
48666;DHT22;34452;50.796;4.994;2023-07-16T08:35:09;19.60;99.90
48666;DHT22;34452;50.796;4.994;2023-07-16T08:37:43;19.70;99.90
48666;DHT22;34452;50.796;4.994;2023-07-16T08:40:09;19.90;99.90
48666;DHT22;34452;50.796;4.994;2023-07-16T08:42:37;20.00;99.90
48666;DHT22;34452;50.796;4.994;2023-07-16T08:47:49;20.10;99.90
48666;DHT22;34452;50.796;4.994;2023-07-16T08:50:14;20.00;99.90
48666;DHT22;34452;50.796;4.994;2023-07-16T08:52:42;19.90;99.90
48666;DHT22;34452;50.796;4.994;2023-07-16T08:55:08;19.90;99.90
48666;DHT22;34452;50.796;4.994;2023-07-16T08:57:35;19.90;99.90
48666;DHT22;34452;50.796;4.994;2023-07-16T09:00:01;19.90;99.90
48666;DHT22;34452;50.796;4.994;2023-07-16T09:02:27;19.80;99.90
48666;DHT22;34452;50.796;4.994;2023-07-16T09:04:53;20.00;99.90
48666;DHT22;34452;50.796;4.994;2023-07-16T09:07:20;20.30;99.90
48666;DHT22;34452;50.796;4.994;2023-07-16T09:09:56;20.30;99.90
48666;DHT22;34452;50.796;4.994;2023-07-16T09:12:24;20.20;99.90
48666;DHT22;34452;50.796;4.994;2023-07-16T09:14:50;20.40;99.90
48666;DHT22;34452;50.796;4.994;2023-07-16T09:20:03;20.70;99.90
48666;DHT22;34452;50.796;4.994;2023-07-16T09:22:29;20.70;99.90
48666;DHT22;34452;50.796;4.994;2023-07-16T09:24:55;20.60;99.90
48666;DHT22;34452;50.796;4.994;2023-07-16T09:27:28;20.70;99.90
48666;DHT22;34452;50.796;4.994;2023-07-16T09:29:54;21.00;99.90
48666;DHT22;34452;50.796;4.994;2023-07-16T09:32:20;21.20;99.90
48666;DHT22;34452;50.796;4.994;2023-07-16T09:34:49;21.60;99.90
48666;DHT22;34452;50.796;4.994;2023-07-16T09:37:17;21.90;99.90
48666;DHT22;34452;50.796;4.994;2023-07-16T09:39:45;22.20;99.90
48666;DHT22;34452;50.796;4.994;2023-07-16T09:42:12;22.00;99.90
48666;DHT22;34452;50.796;4.994;2023-07-16T09:44:39;22.00;98.50
48666;DHT22;34452;50.796;4.994;2023-07-16T09:47:07;21.90;98.20
48666;DHT22;34452;50.796;4.994;2023-07-16T09:49:32;21.80;99.20
48666;DHT22;34452;50.796;4.994;2023-07-16T09:51:58;21.60;98.60
48666;DHT22;34452;50.796;4.994;2023-07-16T09:54:32;21.60;98.90
48666;DHT22;34452;50.796;4.994;2023-07-16T09:56:59;21.50;98.50
48666;DHT22;34452;50.796;4.994;2023-07-16T09:59:29;21.30;98.70
48666;DHT22;34452;50.796;4.994;2023-07-16T10:01:56;21.20;99.20
48666;DHT22;34452;50.796;4.994;2023-07-16T10:04:22;21.20;99.40
48666;DHT22;34452;50.796;4.994;2023-07-16T10:14:53;21.50;97.90
48666;DHT22;34452;50.796;4.994;2023-07-16T10:17:23;21.40;97.90
48666;DHT22;34452;50.796;4.994;2023-07-16T10:22:38;21.30;98.40
48666;DHT22;34452;50.796;4.994;2023-07-16T10:25:24;21.30;98.50
48666;DHT22;34452;50.796;4.994;2023-07-16T10:27:51;21.20;98.20
48666;DHT22;34452;50.796;4.994;2023-07-16T10:30:18;21.00;98.10
48666;DHT22;34452;50.796;4.994;2023-07-16T10:32:45;20.90;98.40
48666;DHT22;34452;50.796;4.994;2023-07-16T10:35:12;20.90;98.30
48666;DHT22;34452;50.796;4.994;2023-07-16T10:37:39;20.90;98.80
48666;DHT22;34452;50.796;4.994;2023-07-16T10:40:05;20.90;99.00
48666;DHT22;34452;50.796;4.994;2023-07-16T10:42:35;21.00;99.00
48666;DHT22;34452;50.796;4.994;2023-07-16T10:45:02;21.10;98.50
48666;DHT22;34452;50.796;4.994;2023-07-16T10:47:53;21.20;98.50
48666;DHT22;34452;50.796;4.994;2023-07-16T10:50:20;21.40;98.10
48666;DHT22;34452;50.796;4.994;2023-07-16T10:52:51;21.60;98.30
48666;DHT22;34452;50.796;4.994;2023-07-16T10:55:18;21.70;97.40
48666;DHT22;34452;50.796;4.994;2023-07-16T10:57:43;21.70;97.20
48666;DHT22;34452;50.796;4.994;2023-07-16T11:00:10;21.70;96.80
48666;DHT22;34452;50.796;4.994;2023-07-16T11:02:38;21.60;96.60
48666;DHT22;34452;50.796;4.994;2023-07-16T11:05:05;21.60;96.20
48666;DHT22;34452;50.796;4.994;2023-07-16T11:07:34;21.60;96.80
48666;DHT22;34452;50.796;4.994;2023-07-16T11:10:00;21.80;97.00
48666;DHT22;34452;50.796;4.994;2023-07-16T11:12:28;21.90;96.80
48666;DHT22;34452;50.796;4.994;2023-07-16T11:14:55;22.10;96.50
48666;DHT22;34452;50.796;4.994;2023-07-16T11:17:23;22.10;95.80
48666;DHT22;34452;50.796;4.994;2023-07-16T11:19:51;22.00;96.20
48666;DHT22;34452;50.796;4.994;2023-07-16T11:22:18;21.80;95.50
48666;DHT22;34452;50.796;4.994;2023-07-16T11:24:46;21.80;95.70
48666;DHT22;34452;50.796;4.994;2023-07-16T11:27:25;21.70;95.30
48666;DHT22;34452;50.796;4.994;2023-07-16T11:29:54;21.70;95.50
48666;DHT22;34452;50.796;4.994;2023-07-16T11:35:23;21.60;95.90
48666;DHT22;34452;50.796;4.994;2023-07-16T11:37:48;21.80;96.60
48666;DHT22;34452;50.796;4.994;2023-07-16T11:40:16;22.00;96.40
48666;DHT22;34452;50.796;4.994;2023-07-16T11:42:42;22.00;95.50
48666;DHT22;34452;50.796;4.994;2023-07-16T11:45:23;22.10;94.90
48666;DHT22;34452;50.796;4.994;2023-07-16T11:47:52;22.10;95.10
48666;DHT22;34452;50.796;4.994;2023-07-16T11:50:17;22.20;95.30
48666;DHT22;34452;50.796;4.994;2023-07-16T11:52:53;22.20;94.80
48666;DHT22;34452;50.796;4.994;2023-07-16T11:55:19;22.30;93.80
48666;DHT22;34452;50.796;4.994;2023-07-16T11:57:45;22.40;94.20
48666;DHT22;34452;50.796;4.994;2023-07-16T12:00:11;22.40;93.60
48666;DHT22;34452;50.796;4.994;2023-07-16T12:02:37;22.60;94.50
48666;DHT22;34452;50.796;4.994;2023-07-16T12:05:03;22.70;94.10
48666;DHT22;34452;50.796;4.994;2023-07-16T12:07:41;22.60;93.50
48666;DHT22;34452;50.796;4.994;2023-07-16T12:10:07;22.60;92.80
48666;DHT22;34452;50.796;4.994;2023-07-16T12:12:33;22.60;93.20
48666;DHT22;34452;50.796;4.994;2023-07-16T12:15:04;22.70;93.20
48666;DHT22;34452;50.796;4.994;2023-07-16T12:17:29;22.70;92.60
48666;DHT22;34452;50.796;4.994;2023-07-16T12:19:55;22.80;92.40
48666;DHT22;34452;50.796;4.994;2023-07-16T12:22:21;22.90;92.30
48666;DHT22;34452;50.796;4.994;2023-07-16T12:24:48;22.90;92.00
48666;DHT22;34452;50.796;4.994;2023-07-16T12:27:14;23.20;91.60
48666;DHT22;34452;50.796;4.994;2023-07-16T12:29:41;23.50;91.20
48666;DHT22;34452;50.796;4.994;2023-07-16T12:32:07;23.90;91.00
48666;DHT22;34452;50.796;4.994;2023-07-16T12:34:34;23.90;91.20
48666;DHT22;34452;50.796;4.994;2023-07-16T12:36:59;23.80;90.20
48666;DHT22;34452;50.796;4.994;2023-07-16T12:39:25;23.90;90.40
48666;DHT22;34452;50.796;4.994;2023-07-16T12:41:51;24.10;90.50
48666;DHT22;34452;50.796;4.994;2023-07-16T12:44:17;24.60;87.20
48666;DHT22;34452;50.796;4.994;2023-07-16T12:46:42;24.60;83.70
48666;DHT22;34452;50.796;4.994;2023-07-16T12:49:08;24.50;81.20
48666;DHT22;34452;50.796;4.994;2023-07-16T12:51:34;24.40;82.20
48666;DHT22;34452;50.796;4.994;2023-07-16T12:53:59;24.50;82.70
48666;DHT22;34452;50.796;4.994;2023-07-16T12:56:26;24.60;81.70
48666;DHT22;34452;50.796;4.994;2023-07-16T12:58:52;24.80;82.90
48666;DHT22;34452;50.796;4.994;2023-07-16T13:01:17;25.10;77.40
48666;DHT22;34452;50.796;4.994;2023-07-16T13:03:43;25.20;77.00
48666;DHT22;34452;50.796;4.994;2023-07-16T13:06:09;25.40;77.10
48666;DHT22;34452;50.796;4.994;2023-07-16T13:08:35;25.70;78.10
48666;DHT22;34452;50.796;4.994;2023-07-16T13:11:01;25.90;76.20
48666;DHT22;34452;50.796;4.994;2023-07-16T13:13:27;26.00;73.50
48666;DHT22;34452;50.796;4.994;2023-07-16T13:15:53;26.00;71.30
48666;DHT22;34452;50.796;4.994;2023-07-16T13:18:18;25.80;71.10
48666;DHT22;34452;50.796;4.994;2023-07-16T13:20:44;25.60;71.30
48666;DHT22;34452;50.796;4.994;2023-07-16T13:23:10;25.40;71.70
48666;DHT22;34452;50.796;4.994;2023-07-16T13:25:36;25.30;72.30
48666;DHT22;34452;50.796;4.994;2023-07-16T13:28:04;25.50;74.00
48666;DHT22;34452;50.796;4.994;2023-07-16T13:30:30;25.70;72.50
48666;DHT22;34452;50.796;4.994;2023-07-16T13:32:56;25.60;72.20
48666;DHT22;34452;50.796;4.994;2023-07-16T13:35:22;25.50;72.90
48666;DHT22;34452;50.796;4.994;2023-07-16T13:37:47;25.40;71.10
48666;DHT22;34452;50.796;4.994;2023-07-16T13:40:13;25.40;71.90
48666;DHT22;34452;50.796;4.994;2023-07-16T13:42:39;25.20;69.60
48666;DHT22;34452;50.796;4.994;2023-07-16T13:45:06;25.20;68.60
48666;DHT22;34452;50.796;4.994;2023-07-16T13:47:32;25.50;70.10
48666;DHT22;34452;50.796;4.994;2023-07-16T13:49:59;25.50;69.50
48666;DHT22;34452;50.796;4.994;2023-07-16T13:52:24;25.50;67.60
48666;DHT22;34452;50.796;4.994;2023-07-16T13:54:50;25.50;66.40
48666;DHT22;34452;50.796;4.994;2023-07-16T13:57:16;25.30;65.40
48666;DHT22;34452;50.796;4.994;2023-07-16T13:59:41;25.10;67.40
48666;DHT22;34452;50.796;4.994;2023-07-16T14:02:07;25.20;68.00
48666;DHT22;34452;50.796;4.994;2023-07-16T14:04:33;25.60;69.60
48666;DHT22;34452;50.796;4.994;2023-07-16T14:07:00;25.70;67.10
48666;DHT22;34452;50.796;4.994;2023-07-16T14:09:25;26.00;68.20
48666;DHT22;34452;50.796;4.994;2023-07-16T14:11:51;25.90;67.20
48666;DHT22;34452;50.796;4.994;2023-07-16T14:14:17;25.60;67.10
48666;DHT22;34452;50.796;4.994;2023-07-16T14:16:43;25.30;67.90
48666;DHT22;34452;50.796;4.994;2023-07-16T14:19:10;25.10;68.10
48666;DHT22;34452;50.796;4.994;2023-07-16T14:21:38;24.80;68.00
48666;DHT22;34452;50.796;4.994;2023-07-16T14:24:04;24.70;69.00
48666;DHT22;34452;50.796;4.994;2023-07-16T14:26:30;24.50;68.30
48666;DHT22;34452;50.796;4.994;2023-07-16T14:28:55;24.30;69.40
48666;DHT22;34452;50.796;4.994;2023-07-16T14:31:21;24.10;69.70
48666;DHT22;34452;50.796;4.994;2023-07-16T14:33:47;23.90;70.70
48666;DHT22;34452;50.796;4.994;2023-07-16T14:36:12;23.80;70.90
48666;DHT22;34452;50.796;4.994;2023-07-16T14:38:39;23.90;70.70
48666;DHT22;34452;50.796;4.994;2023-07-16T14:41:05;23.90;71.40
48666;DHT22;34452;50.796;4.994;2023-07-16T14:43:33;24.10;71.20
48666;DHT22;34452;50.796;4.994;2023-07-16T14:45:59;24.10;71.40
48666;DHT22;34452;50.796;4.994;2023-07-16T14:48:24;24.00;72.20
48666;DHT22;34452;50.796;4.994;2023-07-16T14:50:52;24.00;73.70
48666;DHT22;34452;50.796;4.994;2023-07-16T14:53:18;24.10;72.50
48666;DHT22;34452;50.796;4.994;2023-07-16T14:55:47;24.10;72.80
48666;DHT22;34452;50.796;4.994;2023-07-16T14:58:14;24.20;74.40
48666;DHT22;34452;50.796;4.994;2023-07-16T15:00:39;24.20;73.20
48666;DHT22;34452;50.796;4.994;2023-07-16T15:03:05;24.10;73.30
48666;DHT22;34452;50.796;4.994;2023-07-16T15:05:31;23.90;73.30
48666;DHT22;34452;50.796;4.994;2023-07-16T15:07:57;23.80;74.00
48666;DHT22;34452;50.796;4.994;2023-07-16T15:10:22;23.70;72.30
48666;DHT22;34452;50.796;4.994;2023-07-16T15:12:48;23.60;71.30
48666;DHT22;34452;50.796;4.994;2023-07-16T15:15:14;23.50;70.70
48666;DHT22;34452;50.796;4.994;2023-07-16T15:17:40;23.40;72.00
48666;DHT22;34452;50.796;4.994;2023-07-16T15:20:06;23.30;72.30
48666;DHT22;34452;50.796;4.994;2023-07-16T15:22:32;23.30;72.20
48666;DHT22;34452;50.796;4.994;2023-07-16T15:24:59;23.30;73.00
48666;DHT22;34452;50.796;4.994;2023-07-16T15:27:26;23.40;72.90
48666;DHT22;34452;50.796;4.994;2023-07-16T15:29:52;23.40;72.40
48666;DHT22;34452;50.796;4.994;2023-07-16T15:32:17;23.30;73.60
48666;DHT22;34452;50.796;4.994;2023-07-16T15:34:43;23.30;74.20
48666;DHT22;34452;50.796;4.994;2023-07-16T15:37:09;23.30;75.50
48666;DHT22;34452;50.796;4.994;2023-07-16T15:39:35;23.40;76.70
48666;DHT22;34452;50.796;4.994;2023-07-16T15:42:01;23.50;75.90
48666;DHT22;34452;50.796;4.994;2023-07-16T15:44:27;23.50;76.60
48666;DHT22;34452;50.796;4.994;2023-07-16T15:46:52;23.50;78.10
48666;DHT22;34452;50.796;4.994;2023-07-16T15:49:18;23.40;77.30